Time,TemperatureF,DewpointF,PressureIn,WindDirection,WindDirectionDegrees,WindSpeedMPH,WindSpeedGustMPH,Humidity,HourlyPrecipIn,Conditions,Clouds,dailyrainin,SoftwareType,DateUTC
2013-03-15 00:00:00,41.4,29.0,30.27,SW,216,0.0,4.1,61,0.00,,,0.00,WUHU216WMR968SP,2013-03-15 04:00:00,
2013-03-15 00:05:00,41.4,29.4,30.27,SW,218,0.0,0.0,62,0.00,,,0.00,WUHU216WMR968SP,2013-03-15 04:05:00,
2013-03-15 00:10:00,41.2,29.2,30.27,SW,214,0.0,6.0,62,0.00,,,0.00,WUHU216WMR968SP,2013-03-15 04:10:00,
2013-03-15 00:15:00,41.2,29.2,30.27,SW,222,3.3,6.0,62,0.00,,,0.00,WUHU216WMR968SP,2013-03-15 04:15:00,
2013-03-15 00:20:00,41.0,29.0,30.27,SSW,197,0.0,5.4,62,0.00,,,0.00,WUHU216WMR968SP,2013-03-15 04:20:00,
2013-03-15 00:25:00,40.8,29.3,30.27,SW,225,0.0,4.6,63,0.00,,,0.00,WUHU216WMR968SP,2013-03-15 04:25:00,
2013-03-15 00:30:00,40.8,29.6,30.27,SSW,205,0.0,4.1,64,0.00,,,0.00,WUHU216WMR968SP,2013-03-15 04:30:00,
2013-03-15 00:35:00,40.6,29.5,30.27,SW,233,4.1,4.6,64,0.00,,,0.00,WUHU216WMR968SP,2013-03-15 04:35:00,
2013-03-15 00:40:00,40.6,29.5,30.27,SSW,207,0.0,5.4,64,0.00,,,0.00,WUHU216WMR968SP,2013-03-15 04:40:00,
2013-03-15 00:45:00,40.5,29.4,30.27,SW,218,0.0,5.4,64,0.00,,,0.00,WUHU216WMR968SP,2013-03-15 04:45:00,
2013-03-15 00:50:00,40.3,29.2,30.27,SW,218,0.0,0.0,64,0.00,,,0.00,WUHU216WMR968SP,2013-03-15 04:50:00,
2013-03-15 00:55:00,39.9,28.8,30.27,SW,218,0.0,0.0,64,0.00,,,0.00,WUHU216WMR968SP,2013-03-15 04:55:00,
2013-03-15 01:01:00,39.7,29.0,30.27,SW,218,0.0,0.0,65,0.00,,,0.00,WUHU216WMR968SP,2013-03-15 05:01:00,
2013-03-15 01:06:00,39.7,29.4,30.27,ESE,117,0.0,0.0,66,0.00,,,0.00,WUHU216WMR968SP,2013-03-15 05:06:00,
2013-03-15 01:11:00,39.7,29.4,30.27,SW,214,0.0,0.0,66,0.00,,,0.00,WUHU216WMR968SP,2013-03-15 05:11:00,
2013-03-15 01:16:00,39.7,29.4,30.27,SW,214,0.0,0.0,66,0.00,,,0.00,WUHU216WMR968SP,2013-03-15 05:16:00,
2013-03-15 01:21:00,39.6,29.3,30.24,SW,214,0.0,0.0,66,0.00,,,0.00,WUHU216WMR968SP,2013-03-15 05:21:00,
2013-03-15 01:26:00,39.6,29.6,30.24,SW,214,0.0,0.0,67,0.00,,,0.00,WUHU216WMR968SP,2013-03-15 05:26:00,
2013-03-15 01:31:00,39.4,29.4,30.24,SW,214,0.0,0.0,67,0.00,,,0.00,WUHU216WMR968SP,2013-03-15 05:31:00,
2013-03-15 01:36:00,39.4,29.4,30.24,SW,214,0.0,0.0,67,0.00,,,0.00,WUHU216WMR968SP,2013-03-15 05:36:00,
2013-03-15 01:42:00,39.2,29.6,30.24,SW,214,0.0,0.0,68,0.00,,,0.00,WUHU216WMR968SP,2013-03-15 05:42:00,
2013-03-15 01:47:00,39.2,30.0,30.24,SW,214,0.0,0.0,69,0.00,,,0.00,WUHU216WMR968SP,2013-03-15 05:47:00,
2013-03-15 01:52:00,39.2,30.0,30.24,SW,214,0.0,0.0,69,0.00,,,0.00,WUHU216WMR968SP,2013-03-15 05:52:00,
2013-03-15 01:57:00,39.0,29.8,30.24,SW,214,0.0,0.0,69,0.00,,,0.00,WUHU216WMR968SP,2013-03-15 05:57:00,
2013-03-15 02:02:00,38.7,29.5,30.24,SW,214,0.0,0.0,69,0.00,,,0.00,WUHU216WMR968SP,2013-03-15 06:02:00,
2013-03-15 02:07:00,38.1,29.3,30.24,SW,214,0.0,0.0,70,0.00,,,0.00,WUHU216WMR968SP,2013-03-15 06:07:00,
2013-03-15 02:12:00,37.8,29.0,30.24,SW,214,0.0,0.0,70,0.00,,,0.00,WUHU216WMR968SP,2013-03-15 06:12:00,
2013-03-15 02:17:00,37.4,28.6,30.24,SW,214,0.0,0.0,70,0.00,,,0.00,WUHU216WMR968SP,2013-03-15 06:17:00,
2013-03-15 02:22:00,37.0,28.9,30.24,SSE,162,0.0,0.0,72,0.00,,,0.00,WUHU216WMR968SP,2013-03-15 06:22:00,
2013-03-15 02:27:00,36.9,29.1,30.24,SSE,154,0.0,0.0,73,0.00,,,0.00,WUHU216WMR968SP,2013-03-15 06:27:00,
2013-03-15 02:32:00,36.9,29.1,30.24,SSE,154,0.0,0.0,73,0.00,,,0.00,WUHU216WMR968SP,2013-03-15 06:32:00,
2013-03-15 02:37:00,36.7,28.9,30.24,SSE,154,0.0,0.0,73,0.00,,,0.00,WUHU216WMR968SP,2013-03-15 06:37:00,
2013-03-15 02:42:00,36.5,28.7,30.24,SSE,154,0.0,0.0,73,0.00,,,0.00,WUHU216WMR968SP,2013-03-15 06:42:00,
2013-03-15 02:47:00,36.3,28.9,30.24,SSE,154,0.0,0.0,74,0.00,,,0.00,WUHU216WMR968SP,2013-03-15 06:47:00,
2013-03-15 02:52:00,36.1,28.7,30.24,SSE,154,0.0,0.0,74,0.00,,,0.00,WUHU216WMR968SP,2013-03-15 06:52:00,
2013-03-15 02:57:00,35.8,28.4,30.24,SSE,154,0.0,0.0,74,0.00,,,0.00,WUHU216WMR968SP,2013-03-15 06:57:00,
2013-03-15 03:02:00,35.4,28.3,30.24,SSE,154,0.0,0.0,75,0.00,,,0.00,WUHU216WMR968SP,2013-03-15 07:02:00,
2013-03-15 03:07:00,35.1,28.0,30.24,SSE,154,0.0,0.0,75,0.00,,,0.00,WUHU216WMR968SP,2013-03-15 07:07:00,
2013-03-15 03:12:00,34.9,28.1,30.24,SSE,154,0.0,0.0,76,0.00,,,0.00,WUHU216WMR968SP,2013-03-15 07:12:00,
2013-03-15 03:17:00,34.7,27.9,30.24,SSE,154,0.0,0.0,76,0.00,,,0.00,WUHU216WMR968SP,2013-03-15 07:17:00,
2013-03-15 03:22:00,34.3,27.6,30.21,SE,131,0.0,0.0,76,0.00,,,0.00,WUHU216WMR968SP,2013-03-15 07:22:00,
2013-03-15 03:27:00,34.0,27.6,30.21,SE,131,0.0,0.0,77,0.00,,,0.00,WUHU216WMR968SP,2013-03-15 07:27:00,
2013-03-15 03:32:00,33.6,27.2,30.21,SE,131,0.0,0.0,77,0.00,,,0.00,WUHU216WMR968SP,2013-03-15 07:32:00,
2013-03-15 03:37:00,33.4,27.3,30.24,SE,131,0.0,0.0,78,0.00,,,0.00,WUHU216WMR968SP,2013-03-15 07:37:00,
2013-03-15 03:43:00,33.3,27.2,30.24,SE,131,0.0,0.0,78,0.00,,,0.00,WUHU216WMR968SP,2013-03-15 07:43:00,
2013-03-15 03:48:00,33.3,27.5,30.24,SE,131,0.0,0.0,79,0.00,,,0.00,WUHU216WMR968SP,2013-03-15 07:48:00,
2013-03-15 03:53:00,33.3,27.5,30.24,SE,131,0.0,0.0,79,0.00,,,0.00,WUHU216WMR968SP,2013-03-15 07:53:00,
2013-03-15 03:58:00,33.1,27.3,30.24,SE,131,0.0,0.0,79,0.00,,,0.00,WUHU216WMR968SP,2013-03-15 07:58:00,
2013-03-15 04:03:00,32.9,27.4,30.24,SE,131,0.0,0.0,80,0.00,,,0.00,WUHU216WMR968SP,2013-03-15 08:03:00,
2013-03-15 04:08:00,32.7,27.2,30.21,SE,131,0.0,0.0,80,0.00,,,0.00,WUHU216WMR968SP,2013-03-15 08:08:00,
2013-03-15 04:13:00,32.7,27.2,30.21,SE,131,0.0,0.0,80,0.00,,,0.00,WUHU216WMR968SP,2013-03-15 08:13:00,
2013-03-15 04:18:00,32.5,27.0,30.21,SE,131,0.0,0.0,80,0.00,,,0.00,WUHU216WMR968SP,2013-03-15 08:18:00,
2013-03-15 04:23:00,32.4,27.2,30.21,SE,131,0.0,0.0,81,0.00,,,0.00,WUHU216WMR968SP,2013-03-15 08:23:00,
2013-03-15 04:28:00,32.4,27.2,30.21,SE,131,0.0,0.0,81,0.00,,,0.00,WUHU216WMR968SP,2013-03-15 08:28:00,
2013-03-15 04:33:00,32.2,27.3,30.21,SE,131,0.0,0.0,82,0.00,,,0.00,WUHU216WMR968SP,2013-03-15 08:33:00,
2013-03-15 04:38:00,32.4,27.5,30.21,ESE,114,0.0,0.0,82,0.00,,,0.00,WUHU216WMR968SP,2013-03-15 08:38:00,
2013-03-15 04:43:00,32.2,27.3,30.21,ESE,114,0.0,0.0,82,0.00,,,0.00,WUHU216WMR968SP,2013-03-15 08:43:00,
2013-03-15 04:48:00,32.0,27.4,30.21,ESE,114,0.0,0.0,83,0.00,,,0.00,WUHU216WMR968SP,2013-03-15 08:48:00,
2013-03-15 04:53:00,31.8,27.2,30.21,ESE,114,0.0,0.0,83,0.00,,,0.00,WUHU216WMR968SP,2013-03-15 08:53:00,
2013-03-15 04:58:00,31.8,27.5,30.21,ESE,114,0.0,0.0,84,0.00,,,0.00,WUHU216WMR968SP,2013-03-15 08:58:00,
2013-03-15 05:03:00,31.6,27.3,30.21,ESE,114,0.0,0.0,84,0.00,,,0.00,WUHU216WMR968SP,2013-03-15 09:03:00,
2013-03-15 05:08:00,31.5,27.2,30.21,ESE,114,0.0,0.0,84,0.00,,,0.00,WUHU216WMR968SP,2013-03-15 09:08:00,
2013-03-15 05:13:00,31.5,27.2,30.21,ESE,114,0.0,0.0,84,0.00,,,0.00,WUHU216WMR968SP,2013-03-15 09:13:00,
2013-03-15 05:18:00,31.5,27.5,30.21,ESE,114,0.0,0.0,85,0.00,,,0.00,WUHU216WMR968SP,2013-03-15 09:18:00,
2013-03-15 05:23:00,31.5,27.5,30.18,ESE,114,0.0,0.0,85,0.00,,,0.00,WUHU216WMR968SP,2013-03-15 09:23:00,
2013-03-15 05:28:00,31.5,27.5,30.18,ESE,114,0.0,0.0,85,0.00,,,0.00,WUHU216WMR968SP,2013-03-15 09:28:00,
2013-03-15 05:33:00,31.3,27.3,30.18,ESE,114,0.0,0.0,85,0.00,,,0.00,WUHU216WMR968SP,2013-03-15 09:33:00,
2013-03-15 05:38:00,31.1,27.4,30.18,ESE,114,0.0,0.0,86,0.00,,,0.00,WUHU216WMR968SP,2013-03-15 09:38:00,
2013-03-15 05:43:00,31.3,27.6,30.18,ESE,114,0.0,0.0,86,0.00,,,0.00,WUHU216WMR968SP,2013-03-15 09:43:00,
2013-03-15 05:48:00,31.1,27.4,30.18,ESE,114,0.0,0.0,86,0.00,,,0.00,WUHU216WMR968SP,2013-03-15 09:48:00,
2013-03-15 05:54:00,31.1,27.4,30.18,ESE,114,0.0,0.0,86,0.00,,,0.00,WUHU216WMR968SP,2013-03-15 09:54:00,
2013-03-15 05:59:00,31.3,27.6,30.18,ESE,114,0.0,0.0,86,0.00,,,0.00,WUHU216WMR968SP,2013-03-15 09:59:00,
2013-03-15 06:04:00,31.1,27.4,30.18,ESE,114,0.0,0.0,86,0.00,,,0.00,WUHU216WMR968SP,2013-03-15 10:04:00,
2013-03-15 06:09:00,31.1,27.6,30.18,ESE,114,0.0,0.0,87,0.00,,,0.00,WUHU216WMR968SP,2013-03-15 10:09:00,
2013-03-15 06:14:00,31.1,27.6,30.18,ESE,114,0.0,0.0,87,0.00,,,0.00,WUHU216WMR968SP,2013-03-15 10:14:00,
2013-03-15 06:19:00,30.9,27.5,30.18,ESE,114,0.0,0.0,87,0.00,,,0.00,WUHU216WMR968SP,2013-03-15 10:19:00,
2013-03-15 06:24:00,30.7,27.3,30.18,ESE,114,0.0,0.0,87,0.00,,,0.00,WUHU216WMR968SP,2013-03-15 10:24:00,
2013-03-15 06:29:00,30.9,27.5,30.18,ESE,114,0.0,0.0,87,0.00,,,0.00,WUHU216WMR968SP,2013-03-15 10:29:00,
2013-03-15 06:34:00,30.7,27.5,30.18,ESE,114,0.0,0.0,88,0.00,,,0.00,WUHU216WMR968SP,2013-03-15 10:34:00,
2013-03-15 06:39:00,30.6,27.4,30.18,ESE,114,0.0,0.0,88,0.00,,,0.00,WUHU216WMR968SP,2013-03-15 10:39:00,
2013-03-15 06:44:00,30.6,27.4,30.18,ESE,114,0.0,0.0,88,0.00,,,0.00,WUHU216WMR968SP,2013-03-15 10:44:00,
2013-03-15 06:49:00,30.6,27.4,30.18,ESE,114,0.0,0.0,88,0.00,,,0.00,WUHU216WMR968SP,2013-03-15 10:49:00,
2013-03-15 06:54:00,30.6,27.4,30.18,ESE,114,0.0,0.0,88,0.00,,,0.00,WUHU216WMR968SP,2013-03-15 10:54:00,
2013-03-15 06:59:00,30.4,27.5,30.18,ESE,114,0.0,0.0,89,0.00,,,0.00,WUHU216WMR968SP,2013-03-15 10:59:00,
2013-03-15 07:04:00,30.4,27.5,30.18,ESE,114,0.0,0.0,89,0.00,,,0.00,WUHU216WMR968SP,2013-03-15 11:04:00,
2013-03-15 07:09:00,30.6,27.7,30.18,ESE,114,0.0,0.0,89,0.00,,,0.00,WUHU216WMR968SP,2013-03-15 11:09:00,
2013-03-15 07:14:00,30.7,27.8,30.18,ESE,114,0.0,0.0,89,0.00,,,0.00,WUHU216WMR968SP,2013-03-15 11:14:00,
2013-03-15 07:19:00,30.6,27.7,30.18,ESE,114,0.0,0.0,89,0.00,,,0.00,WUHU216WMR968SP,2013-03-15 11:19:00,
2013-03-15 07:24:00,30.4,27.5,30.18,ESE,114,0.0,0.0,89,0.00,,,0.00,WUHU216WMR968SP,2013-03-15 11:24:00,
2013-03-15 07:29:00,30.4,27.5,30.18,ESE,114,0.0,0.0,89,0.00,,,0.00,WUHU216WMR968SP,2013-03-15 11:29:00,
2013-03-15 07:34:00,30.4,27.8,30.18,ESE,114,0.0,0.0,90,0.00,,,0.00,WUHU216WMR968SP,2013-03-15 11:34:00,
2013-03-15 07:39:00,30.4,27.8,30.18,ESE,112,0.0,0.0,90,0.00,,,0.00,WUHU216WMR968SP,2013-03-15 11:39:00,
2013-03-15 07:44:00,30.4,27.8,30.18,ESE,112,0.0,0.0,90,0.00,,,0.00,WUHU216WMR968SP,2013-03-15 11:44:00,
2013-03-15 07:49:00,30.2,27.6,30.18,ESE,112,0.0,0.0,90,0.00,,,0.00,WUHU216WMR968SP,2013-03-15 11:49:00,
2013-03-15 07:54:00,30.9,28.3,30.18,ESE,108,0.0,0.0,90,0.00,,,0.00,WUHU216WMR968SP,2013-03-15 11:54:00,
2013-03-15 07:59:00,31.5,29.4,30.18,SE,129,0.0,4.1,92,0.00,,,0.00,WUHU216WMR968SP,2013-03-15 11:59:00,
2013-03-15 08:04:00,31.5,29.4,30.18,ESE,120,0.0,4.6,92,0.00,,,0.00,WUHU216WMR968SP,2013-03-15 12:04:00,
2013-03-15 08:09:00,31.6,29.5,30.18,SE,133,0.0,4.6,92,0.00,,,0.00,WUHU216WMR968SP,2013-03-15 12:09:00,
2013-03-15 08:14:00,31.8,29.7,30.18,ESE,119,0.0,4.6,92,0.00,,,0.00,WUHU216WMR968SP,2013-03-15 12:14:00,
2013-03-15 08:19:00,31.8,29.7,30.18,ESE,119,0.0,0.0,92,0.00,,,0.00,WUHU216WMR968SP,2013-03-15 12:19:00,
2013-03-15 08:24:00,32.0,30.2,30.18,ESE,103,0.0,0.0,93,0.00,,,0.00,WUHU216WMR968SP,2013-03-15 12:24:00,
2013-03-15 08:29:00,32.2,30.4,30.18,East,96,0.0,0.0,93,0.00,,,0.00,WUHU216WMR968SP,2013-03-15 12:29:00,
2013-03-15 08:34:00,32.7,30.9,30.18,ESE,104,0.0,0.0,93,0.00,,,0.00,WUHU216WMR968SP,2013-03-15 12:34:00,
2013-03-15 08:40:00,33.3,32.0,30.18,ESE,109,0.0,0.0,93,0.00,,,0.00,WUHU216WMR968SP,2013-03-15 12:40:00,
2013-03-15 08:45:00,33.8,32.0,30.18,ESE,104,0.0,0.0,93,0.00,,,0.00,WUHU216WMR968SP,2013-03-15 12:45:00,
2013-03-15 08:50:00,34.0,32.0,30.18,ESE,105,0.0,0.0,92,0.00,,,0.00,WUHU216WMR968SP,2013-03-15 12:50:00,
2013-03-15 08:55:00,34.3,32.0,30.18,ESE,105,0.0,0.0,91,0.00,,,0.00,WUHU216WMR968SP,2013-03-15 12:55:00,
2013-03-15 09:00:00,34.5,32.0,30.18,ESE,105,0.0,0.0,90,0.00,,,0.00,WUHU216WMR968SP,2013-03-15 13:00:00,
2013-03-15 09:05:00,35.2,33.8,30.18,ESE,105,0.0,0.0,90,0.00,,,0.00,WUHU216WMR968SP,2013-03-15 13:05:00,
2013-03-15 09:10:00,35.4,33.8,30.18,ESE,105,0.0,0.0,90,0.00,,,0.00,WUHU216WMR968SP,2013-03-15 13:10:00,
2013-03-15 09:15:00,35.8,32.0,30.18,ESE,105,0.0,0.0,89,0.00,,,0.00,WUHU216WMR968SP,2013-03-15 13:15:00,
2013-03-15 09:20:00,36.7,33.8,30.15,ESE,105,0.0,0.0,89,0.00,,,0.00,WUHU216WMR968SP,2013-03-15 13:20:00,
2013-03-15 09:25:00,37.4,33.8,30.15,ESE,105,0.0,0.0,88,0.00,,,0.00,WUHU216WMR968SP,2013-03-15 13:25:00,
2013-03-15 09:30:00,37.4,33.8,30.15,ESE,105,0.0,0.0,88,0.00,,,0.00,WUHU216WMR968SP,2013-03-15 13:30:00,
2013-03-15 09:35:00,37.9,33.8,30.15,ESE,104,0.0,0.0,87,0.00,,,0.00,WUHU216WMR968SP,2013-03-15 13:35:00,
2013-03-15 09:40:00,38.7,35.6,30.15,ESE,104,0.0,0.0,87,0.00,,,0.00,WUHU216WMR968SP,2013-03-15 13:40:00,
2013-03-15 09:45:00,39.6,35.6,30.15,West,261,0.0,5.4,87,0.00,,,0.00,WUHU216WMR968SP,2013-03-15 13:45:00,
2013-03-15 09:50:00,40.3,37.4,30.15,WNW,289,0.0,5.4,86,0.00,,,0.00,WUHU216WMR968SP,2013-03-15 13:50:00,
2013-03-15 09:55:00,41.2,37.4,30.15,NW,323,4.1,6.0,85,0.00,,,0.00,WUHU216WMR968SP,2013-03-15 13:55:00,
2013-03-15 10:00:00,42.3,37.4,30.15,WNW,299,0.0,6.0,83,0.00,,,0.00,WUHU216WMR968SP,2013-03-15 14:00:00,
2013-03-15 10:05:00,43.2,37.4,30.15,West,267,5.4,7.4,80,0.00,,,0.00,WUHU216WMR968SP,2013-03-15 14:05:00,
2013-03-15 10:10:00,43.3,35.6,30.15,NW,309,4.1,7.4,78,0.00,,,0.00,WUHU216WMR968SP,2013-03-15 14:10:00,
2013-03-15 10:15:00,44.1,37.4,30.15,WNW,303,5.4,8.1,77,0.00,,,0.00,WUHU216WMR968SP,2013-03-15 14:15:00,
2013-03-15 10:20:00,45.0,37.4,30.15,WSW,246,5.4,9.5,75,0.00,,,0.00,WUHU216WMR968SP,2013-03-15 14:20:00,
2013-03-15 10:25:00,45.0,37.4,30.15,NW,308,4.6,9.5,74,0.00,,,0.00,WUHU216WMR968SP,2013-03-15 14:25:00,
2013-03-15 10:30:00,45.5,37.4,30.15,WNW,290,3.3,8.7,73,0.00,,,0.00,WUHU216WMR968SP,2013-03-15 14:30:00,
2013-03-15 10:35:00,46.4,37.4,30.15,WSW,255,4.1,8.7,72,0.00,,,0.00,WUHU216WMR968SP,2013-03-15 14:35:00,
2013-03-15 10:40:00,47.1,37.4,30.15,West,273,4.1,7.4,70,0.00,,,0.00,WUHU216WMR968SP,2013-03-15 14:40:00,
2013-03-15 10:45:00,47.7,39.2,30.15,WNW,290,5.4,7.4,69,0.00,,,0.00,WUHU216WMR968SP,2013-03-15 14:45:00,
2013-03-15 10:50:00,48.2,37.4,30.15,NW,309,4.1,7.4,68,0.00,,,0.00,WUHU216WMR968SP,2013-03-15 14:50:00,
2013-03-15 10:55:00,48.6,37.4,30.15,WSW,246,4.1,7.4,66,0.00,,,0.00,WUHU216WMR968SP,2013-03-15 14:55:00,
2013-03-15 11:00:00,48.7,37.4,30.15,WNW,284,4.6,7.4,65,0.00,,,0.00,WUHU216WMR968SP,2013-03-15 15:00:00,
2013-03-15 11:05:00,49.5,39.2,30.15,WNW,291,3.3,7.4,64,0.00,,,0.00,WUHU216WMR968SP,2013-03-15 15:05:00,
2013-03-15 11:11:00,49.8,37.4,30.15,WSW,257,3.3,8.7,63,0.00,,,0.00,WUHU216WMR968SP,2013-03-15 15:11:00,
2013-03-15 11:16:00,50.4,37.4,30.15,WNW,285,4.1,8.7,61,0.00,,,0.00,WUHU216WMR968SP,2013-03-15 15:16:00,
2013-03-15 11:21:00,50.0,35.6,30.12,WNW,299,5.4,9.5,59,0.00,,,0.00,WUHU216WMR968SP,2013-03-15 15:21:00,
2013-03-15 11:26:00,51.3,37.4,30.12,NW,312,3.3,9.5,59,0.00,,,0.00,WUHU216WMR968SP,2013-03-15 15:26:00,
2013-03-15 11:31:00,51.4,37.4,30.12,WSW,238,6.8,9.5,57,0.00,,,0.00,WUHU216WMR968SP,2013-03-15 15:31:00,
2013-03-15 11:36:00,52.0,37.4,30.12,West,271,3.3,8.7,57,0.00,,,0.00,WUHU216WMR968SP,2013-03-15 15:36:00,
2013-03-15 11:41:00,52.7,37.4,30.12,SW,236,4.6,8.7,55,0.00,,,0.00,WUHU216WMR968SP,2013-03-15 15:41:00,
2013-03-15 11:46:00,53.6,37.4,30.12,WNW,288,4.6,8.7,54,0.00,,,0.00,WUHU216WMR968SP,2013-03-15 15:46:00,
2013-03-15 11:51:00,54.3,37.4,30.12,WNW,288,5.4,8.7,52,0.00,,,0.00,WUHU216WMR968SP,2013-03-15 15:51:00,
2013-03-15 11:56:00,54.7,37.4,30.12,NW,312,5.4,8.7,52,0.00,,,0.00,WUHU216WMR968SP,2013-03-15 15:56:00,
2013-03-15 12:01:00,55.4,37.4,30.12,West,277,4.1,8.1,51,0.00,,,0.00,WUHU216WMR968SP,2013-03-15 16:01:00,
2013-03-15 12:07:00,56.3,39.2,30.12,WSW,254,4.1,8.1,51,0.00,,,0.00,WUHU216WMR968SP,2013-03-15 16:07:00,
2013-03-15 12:12:00,56.1,37.4,30.12,West,270,5.4,8.1,50,0.00,,,0.00,WUHU216WMR968SP,2013-03-15 16:12:00,
2013-03-15 12:17:00,56.5,37.4,30.12,NW,305,5.4,8.1,49,0.00,,,0.00,WUHU216WMR968SP,2013-03-15 16:17:00,
2013-03-15 12:22:00,57.2,37.4,30.12,NW,314,6.0,10.8,48,0.00,,,0.00,WUHU216WMR968SP,2013-03-15 16:22:00,
2013-03-15 12:27:00,57.6,37.4,30.12,West,262,4.1,10.8,48,0.00,,,0.00,WUHU216WMR968SP,2013-03-15 16:27:00,
2013-03-15 12:32:00,58.5,39.2,30.12,WNW,290,6.8,9.5,47,0.00,,,0.00,WUHU216WMR968SP,2013-03-15 16:32:00,
2013-03-15 12:37:00,58.5,39.2,30.09,WNW,291,5.4,9.5,47,0.00,,,0.00,WUHU216WMR968SP,2013-03-15 16:37:00,
2013-03-15 12:42:00,59.2,39.2,30.09,West,267,4.1,8.7,47,0.00,,,0.00,WUHU216WMR968SP,2013-03-15 16:42:00,
2013-03-15 12:47:00,59.9,39.2,30.09,West,274,6.0,8.7,46,0.00,,,0.00,WUHU216WMR968SP,2013-03-15 16:47:00,
2013-03-15 12:52:00,60.4,39.2,30.06,WNW,290,5.4,8.7,46,0.00,,,0.00,WUHU216WMR968SP,2013-03-15 16:52:00,
2013-03-15 12:58:00,60.6,39.2,30.06,WSW,237,4.1,8.7,45,0.00,,,0.00,WUHU216WMR968SP,2013-03-15 16:58:00,
2013-03-15 13:03:00,60.3,39.2,30.06,West,259,5.4,10.8,45,0.00,,,0.00,WUHU216WMR968SP,2013-03-15 17:03:00,
2013-03-15 13:08:00,60.4,39.2,30.09,WSW,241,5.4,10.8,45,0.00,,,0.00,WUHU216WMR968SP,2013-03-15 17:08:00,
2013-03-15 13:13:00,61.0,39.2,30.09,NW,323,5.4,8.7,45,0.00,,,0.00,WUHU216WMR968SP,2013-03-15 17:13:00,
2013-03-15 13:18:00,61.2,39.2,30.09,WNW,287,4.6,8.7,44,0.00,,,0.00,WUHU216WMR968SP,2013-03-15 17:18:00,
2013-03-15 13:23:00,61.3,39.2,30.09,West,277,6.0,8.7,44,0.00,,,0.00,WUHU216WMR968SP,2013-03-15 17:23:00,
2013-03-15 13:28:00,61.7,41.0,30.09,West,269,4.6,8.7,44,0.00,,,0.00,WUHU216WMR968SP,2013-03-15 17:28:00,
2013-03-15 13:33:00,63.0,39.2,30.09,West,278,4.6,8.1,43,0.00,,,0.00,WUHU216WMR968SP,2013-03-15 17:33:00,
2013-03-15 13:38:00,63.0,39.2,30.09,West,266,5.4,8.7,43,0.00,,,0.00,WUHU216WMR968SP,2013-03-15 17:38:00,
2013-03-15 13:43:00,63.5,41.0,30.09,WSW,251,4.1,8.7,42,0.00,,,0.00,WUHU216WMR968SP,2013-03-15 17:43:00,
2013-03-15 13:48:00,64.4,41.0,30.09,WSW,240,6.0,8.7,42,0.00,,,0.00,WUHU216WMR968SP,2013-03-15 17:48:00,
2013-03-15 13:53:00,65.1,41.0,30.06,WSW,239,5.4,8.7,41,0.00,,,0.00,WUHU216WMR968SP,2013-03-15 17:53:00,
2013-03-15 13:58:00,65.1,41.0,30.06,WSW,254,4.1,8.7,41,0.00,,,0.00,WUHU216WMR968SP,2013-03-15 17:58:00,
2013-03-15 14:03:00,65.7,41.0,30.06,WSW,242,4.6,8.7,40,0.00,,,0.00,WUHU216WMR968SP,2013-03-15 18:03:00,
2013-03-15 14:08:00,65.1,39.2,30.06,WNW,298,4.6,9.5,40,0.00,,,0.00,WUHU216WMR968SP,2013-03-15 18:08:00,
2013-03-15 14:13:00,64.9,39.2,30.06,WSW,244,6.0,12.2,40,0.00,,,0.00,WUHU216WMR968SP,2013-03-15 18:13:00,
2013-03-15 14:18:00,64.9,39.2,30.06,WNW,295,4.1,12.2,40,0.00,,,0.00,WUHU216WMR968SP,2013-03-15 18:18:00,
2013-03-15 14:23:00,65.5,41.0,30.06,West,261,0.0,8.1,40,0.00,,,0.00,WUHU216WMR968SP,2013-03-15 18:23:00,
2013-03-15 14:29:00,65.7,41.0,30.06,WSW,254,4.6,7.4,40,0.00,,,0.00,WUHU216WMR968SP,2013-03-15 18:29:00,
2013-03-15 14:34:00,65.8,41.0,30.06,WSW,240,0.0,8.7,40,0.00,,,0.00,WUHU216WMR968SP,2013-03-15 18:34:00,
2013-03-15 14:39:00,66.7,41.0,30.03,West,265,6.0,8.7,40,0.00,,,0.00,WUHU216WMR968SP,2013-03-15 18:39:00,
2013-03-15 14:44:00,66.9,41.0,30.03,SW,234,4.1,8.7,39,0.00,,,0.00,WUHU216WMR968SP,2013-03-15 18:44:00,
2013-03-15 14:49:00,67.6,42.8,30.03,WSW,249,4.1,8.1,39,0.00,,,0.00,WUHU216WMR968SP,2013-03-15 18:49:00,
2013-03-15 14:54:00,68.9,44.6,30.03,WSW,254,0.0,6.0,39,0.00,,,0.00,WUHU216WMR968SP,2013-03-15 18:54:00,
2013-03-15 14:59:00,69.3,42.8,30.03,WSW,251,4.6,7.4,38,0.00,,,0.00,WUHU216WMR968SP,2013-03-15 18:59:00,
2013-03-15 15:04:00,69.3,42.8,30.03,East,91,4.1,12.5,37,0.00,,,0.00,WUHU216WMR968SP,2013-03-15 19:04:00,
2013-03-15 15:09:00,69.4,42.8,30.03,WSW,255,4.6,12.5,37,0.00,,,0.00,WUHU216WMR968SP,2013-03-15 19:09:00,
2013-03-15 15:14:00,69.6,42.8,30.03,NNW,334,4.6,12.5,37,0.00,,,0.00,WUHU216WMR968SP,2013-03-15 19:14:00,
2013-03-15 15:19:00,69.8,41.0,30.03,WNW,300,5.4,8.1,36,0.00,,,0.00,WUHU216WMR968SP,2013-03-15 19:19:00,
2013-03-15 15:24:00,70.3,41.0,30.00,West,260,6.0,16.5,36,0.00,,,0.00,WUHU216WMR968SP,2013-03-15 19:24:00,
2013-03-15 15:29:00,70.0,41.0,30.00,WSW,244,4.6,16.5,36,0.00,,,0.00,WUHU216WMR968SP,2013-03-15 19:29:00,
2013-03-15 15:34:00,70.7,42.8,30.00,West,279,3.3,15.2,36,0.00,,,0.00,WUHU216WMR968SP,2013-03-15 19:34:00,
2013-03-15 15:39:00,71.4,42.8,30.00,WSW,238,4.1,8.7,36,0.00,,,0.00,WUHU216WMR968SP,2013-03-15 19:39:00,
2013-03-15 15:44:00,71.2,42.8,30.00,SSW,206,5.4,16.5,36,0.00,,,0.00,WUHU216WMR968SP,2013-03-15 19:44:00,
2013-03-15 15:49:00,71.1,42.8,30.00,SW,221,3.3,16.5,35,0.00,,,0.00,WUHU216WMR968SP,2013-03-15 19:49:00,
2013-03-15 15:54:00,70.9,42.8,30.00,WSW,239,6.0,12.5,35,0.00,,,0.00,WUHU216WMR968SP,2013-03-15 19:54:00,
2013-03-15 15:59:00,70.7,42.8,30.00,West,265,10.0,12.5,35,0.00,,,0.00,WUHU216WMR968SP,2013-03-15 19:59:00,
2013-03-15 16:04:00,71.1,42.8,30.00,SSW,202,5.4,12.5,35,0.00,,,0.00,WUHU216WMR968SP,2013-03-15 20:04:00,
2013-03-15 16:09:00,71.1,42.8,29.97,WNW,282,7.4,13.0,35,0.00,,,0.00,WUHU216WMR968SP,2013-03-15 20:09:00,
2013-03-15 16:14:00,71.1,42.8,29.97,WSW,247,8.1,15.8,35,0.00,,,0.00,WUHU216WMR968SP,2013-03-15 20:14:00,
2013-03-15 16:19:00,71.1,42.8,29.97,WSW,244,4.1,15.8,35,0.00,,,0.00,WUHU216WMR968SP,2013-03-15 20:19:00,
2013-03-15 16:24:00,71.4,42.8,29.97,South,186,6.8,13.8,35,0.00,,,0.00,WUHU216WMR968SP,2013-03-15 20:24:00,
2013-03-15 16:29:00,71.6,42.8,29.97,ENE,64,5.4,10.0,35,0.00,,,0.00,WUHU216WMR968SP,2013-03-15 20:29:00,
2013-03-15 16:34:00,72.3,42.8,29.97,South,173,4.6,9.5,35,0.00,,,0.00,WUHU216WMR968SP,2013-03-15 20:34:00,
2013-03-15 16:39:00,72.7,44.6,29.97,WSW,244,7.4,11.4,35,0.00,,,0.00,WUHU216WMR968SP,2013-03-15 20:39:00,
2013-03-15 16:44:00,72.7,42.8,29.97,WSW,240,8.1,11.4,34,0.00,,,0.00,WUHU216WMR968SP,2013-03-15 20:44:00,
2013-03-15 16:50:00,72.7,42.8,29.97,SW,236,6.0,12.5,34,0.00,,,0.00,WUHU216WMR968SP,2013-03-15 20:50:00,
2013-03-15 16:55:00,72.7,42.8,29.94,SW,220,0.0,12.5,34,0.00,,,0.00,WUHU216WMR968SP,2013-03-15 20:55:00,
2013-03-15 17:00:00,72.5,42.8,29.94,West,259,3.3,9.5,34,0.00,,,0.00,WUHU216WMR968SP,2013-03-15 21:00:00,
2013-03-15 17:05:00,72.5,42.8,29.94,West,259,4.6,9.5,34,0.00,,,0.00,WUHU216WMR968SP,2013-03-15 21:05:00,
2013-03-15 17:10:00,73.0,42.8,29.94,WSW,250,6.0,12.2,34,0.00,,,0.00,WUHU216WMR968SP,2013-03-15 21:10:00,
2013-03-15 17:15:00,73.4,42.8,29.94,West,265,6.8,12.2,34,0.00,,,0.00,WUHU216WMR968SP,2013-03-15 21:15:00,
2013-03-15 17:20:00,73.2,42.8,29.94,SW,230,7.4,13.0,34,0.00,,,0.00,WUHU216WMR968SP,2013-03-15 21:20:00,
2013-03-15 17:25:00,73.0,42.8,29.94,West,272,7.4,13.0,34,0.00,,,0.00,WUHU216WMR968SP,2013-03-15 21:25:00,
2013-03-15 17:30:00,73.0,42.8,29.94,West,275,5.4,12.5,34,0.00,,,0.00,WUHU216WMR968SP,2013-03-15 21:30:00,
2013-03-15 17:35:00,72.9,42.8,29.94,SSW,205,7.4,12.2,34,0.00,,,0.00,WUHU216WMR968SP,2013-03-15 21:35:00,
2013-03-15 17:40:00,72.7,42.8,29.94,SW,235,7.4,12.2,34,0.00,,,0.00,WUHU216WMR968SP,2013-03-15 21:40:00,
2013-03-15 17:45:00,72.9,42.8,29.94,West,278,4.6,11.4,34,0.00,,,0.00,WUHU216WMR968SP,2013-03-15 21:45:00,
2013-03-15 17:50:00,72.7,42.8,29.94,SSW,196,4.6,7.4,34,0.00,,,0.00,WUHU216WMR968SP,2013-03-15 21:50:00,
2013-03-15 17:55:00,72.3,42.8,29.94,South,184,4.6,8.7,34,0.00,,,0.00,WUHU216WMR968SP,2013-03-15 21:55:00,
2013-03-15 18:00:00,71.4,42.8,29.94,West,261,4.6,10.0,35,0.00,,,0.00,WUHU216WMR968SP,2013-03-15 22:00:00,
2013-03-15 18:05:00,70.7,42.8,29.94,West,275,4.1,10.0,35,0.00,,,0.00,WUHU216WMR968SP,2013-03-15 22:05:00,
2013-03-15 18:10:00,70.7,42.8,29.94,SSW,209,0.0,8.1,36,0.00,,,0.00,WUHU216WMR968SP,2013-03-15 22:10:00,
2013-03-15 18:15:00,70.5,41.0,29.94,WNW,295,3.3,7.4,36,0.00,,,0.00,WUHU216WMR968SP,2013-03-15 22:15:00,
2013-03-15 18:20:00,70.5,41.0,29.94,West,265,5.4,9.5,36,0.00,,,0.00,WUHU216WMR968SP,2013-03-15 22:20:00,
2013-03-15 18:25:00,70.7,42.8,29.94,WNW,299,3.3,9.5,36,0.00,,,0.00,WUHU216WMR968SP,2013-03-15 22:25:00,
2013-03-15 18:30:00,70.5,41.0,29.94,West,281,4.6,7.4,36,0.00,,,0.00,WUHU216WMR968SP,2013-03-15 22:30:00,
2013-03-15 18:35:00,70.0,41.0,29.94,WSW,237,0.0,7.4,36,0.00,,,0.00,WUHU216WMR968SP,2013-03-15 22:35:00,
2013-03-15 18:40:00,69.3,42.8,29.94,WNW,285,0.0,6.0,37,0.00,,,0.00,WUHU216WMR968SP,2013-03-15 22:40:00,
2013-03-15 18:45:00,69.1,42.8,29.94,WSW,243,0.0,6.0,37,0.00,,,0.00,WUHU216WMR968SP,2013-03-15 22:45:00,
2013-03-15 18:50:00,68.9,42.8,29.94,NW,325,0.0,6.0,38,0.00,,,0.00,WUHU216WMR968SP,2013-03-15 22:50:00,
2013-03-15 18:55:00,69.1,42.8,29.94,NW,307,6.0,8.7,38,0.00,,,0.00,WUHU216WMR968SP,2013-03-15 22:55:00,
2013-03-15 19:00:00,69.1,42.8,29.94,West,262,0.0,8.7,38,0.00,,,0.00,WUHU216WMR968SP,2013-03-15 23:00:00,
2013-03-15 19:05:00,68.9,42.8,29.94,WNW,288,0.0,6.0,38,0.00,,,0.00,WUHU216WMR968SP,2013-03-15 23:05:00,
2013-03-15 19:10:00,68.5,42.8,29.94,SSW,194,0.0,5.4,39,0.00,,,0.00,WUHU216WMR968SP,2013-03-15 23:10:00,
2013-03-15 19:15:00,68.5,42.8,29.94,West,262,0.0,5.4,39,0.00,,,0.00,WUHU216WMR968SP,2013-03-15 23:15:00,
2013-03-15 19:20:00,68.4,42.8,29.94,SW,223,3.3,6.0,39,0.00,,,0.00,WUHU216WMR968SP,2013-03-15 23:20:00,
2013-03-15 19:25:00,68.4,42.8,29.94,SW,218,0.0,7.4,39,0.00,,,0.00,WUHU216WMR968SP,2013-03-15 23:25:00,
2013-03-15 19:30:00,68.2,42.8,29.94,SW,218,4.6,7.4,39,0.00,,,0.00,WUHU216WMR968SP,2013-03-15 23:30:00,
2013-03-15 19:35:00,68.2,42.8,29.94,WSW,238,0.0,6.0,39,0.00,,,0.00,WUHU216WMR968SP,2013-03-15 23:35:00,
2013-03-15 19:41:00,68.2,42.8,29.94,SSW,211,4.1,7.4,39,0.00,,,0.00,WUHU216WMR968SP,2013-03-15 23:41:00,
2013-03-15 19:46:00,68.5,42.8,29.94,SW,217,4.6,8.7,39,0.00,,,0.00,WUHU216WMR968SP,2013-03-15 23:46:00,
2013-03-15 19:51:00,68.5,42.8,29.94,WSW,238,3.3,8.7,39,0.00,,,0.00,WUHU216WMR968SP,2013-03-15 23:51:00,
2013-03-15 19:56:00,68.4,42.8,29.94,SW,234,0.0,7.4,39,0.00,,,0.00,WUHU216WMR968SP,2013-03-15 23:56:00,
2013-03-15 20:01:00,67.8,42.8,29.94,WSW,255,0.0,7.4,40,0.00,,,0.00,WUHU216WMR968SP,2013-03-16 00:01:00,
2013-03-15 20:06:00,67.6,42.8,29.94,SW,224,3.3,5.4,40,0.00,,,0.00,WUHU216WMR968SP,2013-03-16 00:06:00,
2013-03-15 20:11:00,67.5,42.8,29.94,WSW,245,4.6,8.1,40,0.00,,,0.00,WUHU216WMR968SP,2013-03-16 00:11:00,
2013-03-15 20:16:00,67.5,42.8,29.94,SW,235,0.0,8.1,41,0.00,,,0.00,WUHU216WMR968SP,2013-03-16 00:16:00,
2013-03-15 20:21:00,67.6,42.8,29.94,WSW,238,4.6,6.0,41,0.00,,,0.00,WUHU216WMR968SP,2013-03-16 00:21:00,
2013-03-15 20:26:00,67.8,42.8,29.94,WSW,246,4.6,6.0,40,0.00,,,0.00,WUHU216WMR968SP,2013-03-16 00:26:00,
2013-03-15 20:32:00,67.8,42.8,29.94,SW,221,0.0,6.0,40,0.00,,,0.00,WUHU216WMR968SP,2013-03-16 00:32:00,
2013-03-15 20:37:00,67.6,42.8,29.94,SW,220,4.1,7.4,41,0.00,,,0.00,WUHU216WMR968SP,2013-03-16 00:37:00,
2013-03-15 20:42:00,67.6,42.8,29.94,SSW,195,3.3,7.4,40,0.00,,,0.00,WUHU216WMR968SP,2013-03-16 00:42:00,
2013-03-15 20:47:00,67.3,42.8,29.94,SSW,205,0.0,6.0,41,0.00,,,0.00,WUHU216WMR968SP,2013-03-16 00:47:00,
2013-03-15 20:52:00,67.1,42.8,29.94,SW,233,0.0,3.3,41,0.00,,,0.00,WUHU216WMR968SP,2013-03-16 00:52:00,
2013-03-15 20:57:00,66.7,41.0,29.94,SW,232,0.0,0.0,41,0.00,,,0.00,WUHU216WMR968SP,2013-03-16 00:57:00,
2013-03-15 21:02:00,66.7,41.0,29.94,SSE,150,0.0,4.6,41,0.00,,,0.00,WUHU216WMR968SP,2013-03-16 01:02:00,
2013-03-15 21:07:00,66.4,42.8,29.94,SSE,148,0.0,4.6,42,0.00,,,0.00,WUHU216WMR968SP,2013-03-16 01:07:00,
2013-03-15 21:12:00,66.4,42.8,29.94,SSW,199,3.3,6.0,42,0.00,,,0.00,WUHU216WMR968SP,2013-03-16 01:12:00,
2013-03-15 21:17:00,66.2,42.8,29.94,SSW,192,0.0,6.0,42,0.00,,,0.00,WUHU216WMR968SP,2013-03-16 01:17:00,
2013-03-15 21:22:00,65.8,42.8,29.94,South,183,0.0,6.0,43,0.00,,,0.00,WUHU216WMR968SP,2013-03-16 01:22:00,
2013-03-15 21:27:00,65.5,42.8,29.94,SSE,160,0.0,6.0,43,0.00,,,0.00,WUHU216WMR968SP,2013-03-16 01:27:00,
2013-03-15 21:32:00,65.3,42.8,29.94,SE,139,3.3,5.4,44,0.00,,,0.00,WUHU216WMR968SP,2013-03-16 01:32:00,
2013-03-15 21:37:00,65.5,42.8,29.94,SSE,153,0.0,6.0,44,0.00,,,0.00,WUHU216WMR968SP,2013-03-16 01:37:00,
2013-03-15 21:42:00,65.1,42.8,29.94,SSE,158,0.0,6.0,44,0.00,,,0.00,WUHU216WMR968SP,2013-03-16 01:42:00,
2013-03-15 21:47:00,65.1,42.8,29.94,SW,219,3.3,5.4,44,0.00,,,0.00,WUHU216WMR968SP,2013-03-16 01:47:00,
2013-03-15 21:52:00,65.3,42.8,29.94,SSW,203,4.1,8.1,44,0.00,,,0.00,WUHU216WMR968SP,2013-03-16 01:52:00,
2013-03-15 21:57:00,65.7,42.8,29.94,SW,216,3.3,8.1,44,0.00,,,0.00,WUHU216WMR968SP,2013-03-16 01:57:00,
2013-03-15 22:02:00,65.8,42.8,29.94,West,263,3.3,6.0,44,0.00,,,0.00,WUHU216WMR968SP,2013-03-16 02:02:00,
2013-03-15 22:07:00,66.0,42.8,29.94,SSE,167,0.0,8.1,43,0.00,,,0.00,WUHU216WMR968SP,2013-03-16 02:07:00,
2013-03-15 22:12:00,65.7,42.8,29.94,South,179,0.0,9.5,44,0.00,,,0.00,WUHU216WMR968SP,2013-03-16 02:12:00,
2013-03-15 22:18:00,65.5,42.8,29.94,SSW,209,0.0,9.5,44,0.00,,,0.00,WUHU216WMR968SP,2013-03-16 02:18:00,
2013-03-15 22:23:00,65.1,42.8,29.94,South,177,0.0,8.7,44,0.00,,,0.00,WUHU216WMR968SP,2013-03-16 02:23:00,
2013-03-15 22:28:00,64.4,42.8,29.94,South,177,0.0,8.1,44,0.00,,,0.00,WUHU216WMR968SP,2013-03-16 02:28:00,
2013-03-15 22:33:00,64.0,42.8,29.94,West,261,0.0,3.3,45,0.00,,,0.00,WUHU216WMR968SP,2013-03-16 02:33:00,
2013-03-15 22:38:00,63.9,42.8,29.94,ESE,116,0.0,6.0,45,0.00,,,0.00,WUHU216WMR968SP,2013-03-16 02:38:00,
2013-03-15 22:43:00,64.0,42.8,29.94,SE,132,6.0,8.7,46,0.00,,,0.00,WUHU216WMR968SP,2013-03-16 02:43:00,
2013-03-15 22:48:00,64.0,42.8,29.94,SSE,167,0.0,8.7,46,0.00,,,0.00,WUHU216WMR968SP,2013-03-16 02:48:00,
2013-03-15 22:53:00,63.5,42.8,29.94,WNW,293,0.0,6.0,46,0.00,,,0.00,WUHU216WMR968SP,2013-03-16 02:53:00,
2013-03-15 22:58:00,63.5,42.8,29.94,South,189,3.3,7.4,46,0.00,,,0.00,WUHU216WMR968SP,2013-03-16 02:58:00,
2013-03-15 23:03:00,64.0,42.8,29.94,South,190,3.3,8.1,46,0.00,,,0.00,WUHU216WMR968SP,2013-03-16 03:03:00,
2013-03-15 23:08:00,64.6,42.8,29.94,SW,217,3.3,8.1,45,0.00,,,0.00,WUHU216WMR968SP,2013-03-16 03:08:00,
2013-03-15 23:13:00,64.9,42.8,29.94,South,173,5.4,6.0,45,0.00,,,0.00,WUHU216WMR968SP,2013-03-16 03:13:00,
2013-03-15 23:18:00,65.1,42.8,29.94,SW,225,4.6,7.4,45,0.00,,,0.00,WUHU216WMR968SP,2013-03-16 03:18:00,
2013-03-15 23:23:00,65.3,44.6,29.94,South,176,4.6,8.7,45,0.00,,,0.00,WUHU216WMR968SP,2013-03-16 03:23:00,
2013-03-15 23:28:00,65.5,44.6,29.94,SW,226,4.1,8.7,45,0.00,,,0.00,WUHU216WMR968SP,2013-03-16 03:28:00,
2013-03-15 23:33:00,65.7,44.6,29.94,SW,218,0.0,11.4,45,0.00,,,0.00,WUHU216WMR968SP,2013-03-16 03:33:00,
2013-03-15 23:38:00,65.3,44.6,29.94,SW,224,4.6,11.4,45,0.00,,,0.00,WUHU216WMR968SP,2013-03-16 03:38:00,
2013-03-15 23:43:00,65.7,42.8,29.94,WSW,238,5.4,12.2,44,0.00,,,0.00,WUHU216WMR968SP,2013-03-16 03:43:00,
2013-03-15 23:48:00,65.7,42.8,29.94,WSW,242,3.3,12.2,44,0.00,,,0.00,WUHU216WMR968SP,2013-03-16 03:48:00,
2013-03-15 23:53:00,65.3,42.8,29.94,SSW,204,7.4,15.8,44,0.00,,,0.00,WUHU216WMR968SP,2013-03-16 03:53:00,
2013-03-15 23:58:00,65.3,42.8,29.94,SW,223,3.3,15.8,44,0.00,,,0.00,WUHU216WMR968SP,2013-03-16 03:58:00,